Time;durP1;ratioP1;P1;durP2;ratioP2;P2;SDS_P1;SDS_P2;PMS_P1;PMS_P2;Temp;Humidity;BMP_temperature;BMP_pressure;BME280_temperature;BME280_humidity;BME280_pressure;Samples;Min_cycle;Max_cycle;Signal;HPM_P1;HPM_P2
2022/04/20 00:01:35;;;;;;;7.18;4.07;;;;;;;;;;4991149;28;20097;-58
2022/04/20 00:04:01;;;;;;;9.30;3.90;;;;;;;;;;4991360;28;20034;-61
2022/04/20 00:06:26;;;;;;;6.32;4.40;;;;;;;;;;4991614;28;20396;-63
2022/04/20 00:08:52;;;;;;;9.00;4.40;;;;;;;;;;4991551;28;20014;-59
2022/04/20 00:11:17;;;;;;;7.20;4.15;;;;;;;;;;4991499;28;20026;-62
2022/04/20 00:13:43;;;;;;;6.38;4.05;;;;;;;;;;4991633;28;20050;-59
2022/04/20 00:16:09;;;;;;;8.68;4.10;;;;;;;;;;4990899;28;20030;-57
2022/04/20 00:18:35;;;;;;;8.98;4.20;;;;;;;;;;4991357;28;20076;-62
2022/04/20 00:21:00;;;;;;;9.82;4.25;;;;;;;;;;4991407;28;20027;-62
2022/04/20 00:23:26;;;;;;;6.45;3.97;;;;;;;;;;4991549;28;20014;-63
2022/04/20 00:25:51;;;;;;;7.47;4.22;;;;;;;;;;4991231;28;20022;-57
2022/04/20 00:28:17;;;;;;;9.10;4.68;;;;;;;;;;4991244;28;20033;-56
2022/04/20 00:30:42;;;;;;;11.93;4.60;;;;;;;;;;4995765;28;20026;-57
2022/04/20 00:33:08;;;;;;;8.10;3.75;;;;;;;;;;4996118;28;20026;-62
2022/04/20 00:35:33;;;;;;;11.23;4.60;;;;;;;;;;4996069;28;20030;-62
2022/04/20 00:37:59;;;;;;;7.20;4.22;;;;;;;;;;4995931;28;20165;-59
2022/04/20 00:40:25;;;;;;;7.82;4.25;;;;;;;;;;4995875;28;20038;-63
2022/04/20 00:42:51;;;;;;;7.53;4.28;;;;;;;;;;4995549;28;20030;-58
2022/04/20 00:45:16;;;;;;;7.43;4.47;;;;;;;;;;4995381;28;20539;-61
2022/04/20 00:47:43;;;;;;;6.80;3.65;;;;;;;;;;4995816;28;20027;-56
2022/04/20 00:50:10;;;;;;;7.00;4.50;;;;;;;;;;4995823;28;20044;-60
2022/04/20 00:52:36;;;;;;;11.25;5.32;;;;;;;;;;4995693;28;20365;-57
2022/04/20 00:55:02;;;;;;;7.35;4.22;;;;;;;;;;4995704;28;20040;-60
2022/04/20 00:57:28;;;;;;;9.32;4.05;;;;;;;;;;4995431;28;20065;-63
2022/04/20 00:59:56;;;;;;;6.40;3.65;;;;;;;;;;4995193;28;20062;-62
2022/04/20 01:02:23;;;;;;;6.60;4.07;;;;;;;;;;4995485;28;20100;-59
2022/04/20 01:04:55;;;;;;;5.38;3.50;;;;;;;;;;4994844;28;20050;-58
2022/04/20 01:07:22;;;;;;;7.63;3.75;;;;;;;;;;4994540;28;20113;-57
2022/04/20 01:09:47;;;;;;;8.05;3.92;;;;;;;;;;4994837;28;20093;-61
2022/04/20 01:12:15;;;;;;;9.05;4.45;;;;;;;;;;4993876;28;20528;-59
2022/04/20 01:14:41;;;;;;;7.60;3.95;;;;;;;;;;4995184;28;20113;-57
2022/04/20 01:17:07;;;;;;;6.50;3.50;;;;;;;;;;4995302;28;20503;-59
2022/04/20 01:19:33;;;;;;;7.80;4.05;;;;;;;;;;4995234;28;20102;-62
2022/04/20 01:22:00;;;;;;;5.22;3.47;;;;;;;;;;4995332;28;20022;-60
2022/04/20 01:24:25;;;;;;;5.50;3.55;;;;;;;;;;4995247;28;20033;-63
2022/04/20 01:26:51;;;;;;;7.20;3.85;;;;;;;;;;4994919;28;20034;-59
2022/04/20 01:29:18;;;;;;;5.65;3.72;;;;;;;;;;4995096;28;20060;-62
2022/04/20 01:31:44;;;;;;;9.57;5.30;;;;;;;;;;4995022;28;20031;-59
2022/04/20 01:34:09;;;;;;;6.47;4.30;;;;;;;;;;4995012;28;20033;-57
2022/04/20 01:36:35;;;;;;;9.75;5.25;;;;;;;;;;4994612;28;20038;-57
2022/04/20 01:39:00;;;;;;;10.05;5.40;;;;;;;;;;4994946;28;20146;-62
2022/04/20 01:41:25;;;;;;;9.23;5.30;;;;;;;;;;4993856;28;20088;-62
2022/04/20 01:43:51;;;;;;;8.05;4.55;;;;;;;;;;4994791;28;20058;-62
2022/04/20 01:46:17;;;;;;;6.70;4.18;;;;;;;;;;4994743;28;20069;-61
2022/04/20 01:48:42;;;;;;;5.60;3.40;;;;;;;;;;4994760;28;20026;-62
2022/04/20 01:53:52;;;;;;;8.52;3.83;;;;;;;;;;4994406;28;20029;-59
2022/04/20 01:56:17;;;;;;;9.32;3.42;;;;;;;;;;4994567;28;20026;-62
2022/04/20 01:58:42;;;;;;;5.43;3.75;;;;;;;;;;4994500;28;20038;-59
2022/04/20 02:03:52;;;;;;;7.10;3.33;;;;;;;;;;4993553;28;20056;-60
2022/04/20 02:06:18;;;;;;;5.43;3.45;;;;;;;;;;4993868;28;20101;-56
2022/04/20 02:08:43;;;;;;;6.07;3.50;;;;;;;;;;4993769;28;20030;-55
2022/04/20 02:11:09;;;;;;;5.32;3.40;;;;;;;;;;4994295;28;20353;-61
2022/04/20 02:13:34;;;;;;;4.97;3.20;;;;;;;;;;4994214;28;20049;-60
2022/04/20 02:16:00;;;;;;;6.72;3.58;;;;;;;;;;4994245;28;20061;-58
2022/04/20 02:18:25;;;;;;;7.00;3.42;;;;;;;;;;4994094;28;20090;-62
2022/04/20 02:20:50;;;;;;;8.45;3.47;;;;;;;;;;4994233;28;20439;-59
2022/04/20 02:23:16;;;;;;;5.65;3.22;;;;;;;;;;4993803;28;20030;-55
2022/04/20 02:25:42;;;;;;;5.70;3.20;;;;;;;;;;4993922;28;20045;-61
2022/04/20 02:28:07;;;;;;;6.00;3.30;;;;;;;;;;4994125;28;20396;-62
2022/04/20 02:30:33;;;;;;;7.28;4.03;;;;;;;;;;4993991;28;20499;-62
2022/04/20 02:32:58;;;;;;;5.22;3.40;;;;;;;;;;4993685;28;20049;-62
2022/04/20 02:35:24;;;;;;;5.32;3.47;;;;;;;;;;4993256;28;20034;-58
2022/04/20 02:37:50;;;;;;;6.03;3.72;;;;;;;;;;4992910;28;20089;-60
2022/04/20 02:40:15;;;;;;;6.82;4.30;;;;;;;;;;4993110;28;20037;-61
2022/04/20 02:42:41;;;;;;;7.18;4.30;;;;;;;;;;4991991;28;20022;-59
2022/04/20 02:45:07;;;;;;;6.55;3.92;;;;;;;;;;4993744;28;20033;-61
2022/04/20 02:47:32;;;;;;;8.13;3.95;;;;;;;;;;4993633;28;20101;-63
2022/04/20 02:49:58;;;;;;;8.07;4.05;;;;;;;;;;4993730;28;20441;-56
2022/04/20 02:52:23;;;;;;;7.10;3.78;;;;;;;;;;4992446;28;20089;-58
2022/04/20 02:54:49;;;;;;;7.00;4.10;;;;;;;;;;4993456;28;20030;-58
2022/04/20 02:57:14;;;;;;;11.13;4.40;;;;;;;;;;4993367;28;20033;-58
2022/04/20 02:59:40;;;;;;;7.85;5.07;;;;;;;;;;4993112;28;20049;-58
2022/04/20 03:02:05;;;;;;;11.88;6.13;;;;;;;;;;4992730;28;20030;-59
2022/04/20 03:04:31;;;;;;;12.68;5.85;;;;;;;;;;4992500;28;20532;-60
2022/04/20 03:06:56;;;;;;;14.30;7.15;;;;;;;;;;4992416;28;20113;-59
2022/04/20 03:09:22;;;;;;;15.05;7.70;;;;;;;;;;4993260;28;20023;-58
2022/04/20 03:11:47;;;;;;;13.13;7.03;;;;;;;;;;4993352;28;20388;-58
2022/04/20 03:14:13;;;;;;;12.63;6.13;;;;;;;;;;4993317;28;20022;-61
2022/04/20 03:16:39;;;;;;;8.93;5.50;;;;;;;;;;4993159;28;20511;-58
2022/04/20 03:19:04;;;;;;;15.70;5.80;;;;;;;;;;4993071;28;20023;-59
2022/04/20 03:21:30;;;;;;;8.35;4.88;;;;;;;;;;4992988;28;20030;-62
2022/04/20 03:23:55;;;;;;;10.30;5.78;;;;;;;;;;4993097;28;20027;-58
2022/04/20 03:26:21;;;;;;;9.02;4.82;;;;;;;;;;4992970;28;20027;-61
2022/04/20 03:28:46;;;;;;;7.28;4.05;;;;;;;;;;4993193;28;20022;-58
2022/04/20 03:31:12;;;;;;;10.18;4.35;;;;;;;;;;4992497;28;20391;-60
2022/04/20 03:33:37;;;;;;;12.75;5.43;;;;;;;;;;4992352;28;20022;-56
2022/04/20 03:36:06;;;;;;;8.73;4.57;;;;;;;;;;4992215;28;20358;-59
2022/04/20 03:38:31;;;;;;;8.32;4.30;;;;;;;;;;4992190;28;20073;-58
2022/04/20 03:40:57;;;;;;;9.88;4.82;;;;;;;;;;4992599;28;20058;-59
2022/04/20 03:43:23;;;;;;;7.85;4.60;;;;;;;;;;4992799;28;20030;-62
2022/04/20 03:45:50;;;;;;;9.25;4.88;;;;;;;;;;4992741;28;20030;-58
2022/04/20 03:48:16;;;;;;;7.63;4.30;;;;;;;;;;4992855;28;20061;-62
2022/04/20 03:50:41;;;;;;;9.20;4.50;;;;;;;;;;4992652;28;20101;-61
2022/04/20 03:53:07;;;;;;;8.13;3.88;;;;;;;;;;4992681;28;20041;-56
2022/04/20 03:55:33;;;;;;;7.95;4.53;;;;;;;;;;4992873;28;20085;-62
2022/04/20 03:57:58;;;;;;;7.80;4.05;;;;;;;;;;4992598;28;20056;-60
2022/04/20 04:00:25;;;;;;;8.52;3.78;;;;;;;;;;4992821;28;20022;-62
2022/04/20 04:02:51;;;;;;;9.10;4.43;;;;;;;;;;4992107;28;20085;-59
2022/04/20 04:05:17;;;;;;;8.77;3.70;;;;;;;;;;4995660;28;20140;-62
2022/04/20 04:07:43;;;;;;;8.45;3.60;;;;;;;;;;4996031;28;20073;-60
2022/04/20 04:10:08;;;;;;;5.95;3.72;;;;;;;;;;4995990;28;20113;-59
2022/04/20 04:12:34;;;;;;;7.25;3.53;;;;;;;;;;4996470;28;20038;-60
2022/04/20 04:15:00;;;;;;;7.10;3.75;;;;;;;;;;4996448;28;20034;-60
2022/04/20 04:17:25;;;;;;;7.28;4.20;;;;;;;;;;4996368;28;20030;-58
2022/04/20 04:19:50;;;;;;;8.35;4.20;;;;;;;;;;4996220;28;20062;-61
2022/04/20 04:22:16;;;;;;;6.45;3.70;;;;;;;;;;4996220;28;20034;-61
2022/04/20 04:24:42;;;;;;;9.68;3.92;;;;;;;;;;4996226;28;20081;-60
2022/04/20 04:27:10;;;;;;;8.68;3.58;;;;;;;;;;4996226;28;20029;-56
2022/04/20 04:29:36;;;;;;;8.40;4.25;;;;;;;;;;4996271;28;20026;-60
2022/04/20 04:32:02;;;;;;;12.15;4.97;;;;;;;;;;4996296;28;20030;-61
2022/04/20 04:34:29;;;;;;;6.20;3.63;;;;;;;;;;4995409;28;20061;-59
2022/04/20 04:36:55;;;;;;;6.55;3.95;;;;;;;;;;4995381;28;20117;-62
2022/04/20 04:39:21;;;;;;;12.88;7.85;;;;;;;;;;4995244;28;20449;-59
2022/04/20 04:41:50;;;;;;;7.68;3.13;;;;;;;;;;4995148;28;20113;-56
2022/04/20 04:44:17;;;;;;;9.63;3.70;;;;;;;;;;4995892;28;20484;-58
2022/04/20 04:49:28;;;;;;;8.52;3.60;;;;;;;;;;4995950;28;20081;-58
2022/04/20 04:51:55;;;;;;;5.38;3.15;;;;;;;;;;4995837;28;20034;-59
2022/04/20 04:54:21;;;;;;;5.97;3.53;;;;;;;;;;4994350;28;20392;-58
2022/04/20 04:56:47;;;;;;;7.32;3.70;;;;;;;;;;4995606;28;20029;-62
2022/04/20 04:59:12;;;;;;;8.52;3.60;;;;;;;;;;4995674;28;20042;-59
2022/04/20 05:01:38;;;;;;;6.43;3.38;;;;;;;;;;4995317;28;20106;-57
2022/04/20 05:04:03;;;;;;;8.10;3.70;;;;;;;;;;4994535;28;20050;-58
2022/04/20 05:06:29;;;;;;;9.43;3.58;;;;;;;;;;4995022;28;20395;-58
2022/04/20 05:08:54;;;;;;;8.27;3.30;;;;;;;;;;4994758;28;20014;-58
2022/04/20 05:11:20;;;;;;;6.38;2.65;;;;;;;;;;4995174;28;20026;-61
2022/04/20 05:13:46;;;;;;;4.68;2.50;;;;;;;;;;4995390;28;20018;-60
2022/04/20 05:16:12;;;;;;;5.05;2.97;;;;;;;;;;4994339;28;20443;-59
2022/04/20 05:18:38;;;;;;;6.20;3.15;;;;;;;;;;4995125;28;20059;-60
2022/04/20 05:21:03;;;;;;;6.50;3.05;;;;;;;;;;4995295;28;20028;-61
2022/04/20 05:23:29;;;;;;;5.90;3.20;;;;;;;;;;4995084;28;20464;-58
2022/04/20 05:25:54;;;;;;;10.65;3.70;;;;;;;;;;4995113;28;20030;-57
2022/04/20 05:28:20;;;;;;;7.50;3.78;;;;;;;;;;4995045;28;20444;-59
2022/04/20 05:30:45;;;;;;;10.55;3.83;;;;;;;;;;4994995;28;20061;-58
2022/04/20 05:33:12;;;;;;;7.43;3.40;;;;;;;;;;4994265;28;20361;-59
2022/04/20 05:35:38;;;;;;;8.00;3.72;;;;;;;;;;4994302;28;20018;-58
2022/04/20 05:43:32;;;;;;;4.40;2.65;;;;;;;;;;4994908;28;20065;-59
2022/04/20 05:45:57;;;;;;;10.48;3.70;;;;;;;;;;4994606;28;20421;-57
2022/04/20 05:48:23;;;;;;;9.90;3.30;;;;;;;;;;4994608;28;20022;-62
2022/04/20 05:50:48;;;;;;;11.73;3.03;;;;;;;;;;4994717;28;20115;-61
2022/04/20 05:53:14;;;;;;;8.07;3.40;;;;;;;;;;4994722;28;20105;-59
2022/04/20 05:55:39;;;;;;;12.23;3.55;;;;;;;;;;4994021;28;20050;-58
2022/04/20 05:58:06;;;;;;;8.63;3.50;;;;;;;;;;4994468;28;20073;-62
2022/04/20 06:00:31;;;;;;;9.93;3.15;;;;;;;;;;4994069;28;20472;-63
2022/04/20 06:02:57;;;;;;;6.43;3.47;;;;;;;;;;4993817;28;20033;-58
2022/04/20 06:05:23;;;;;;;8.50;3.42;;;;;;;;;;4993704;28;20082;-57
2022/04/20 06:07:49;;;;;;;9.68;3.15;;;;;;;;;;4992320;28;20045;-59
2022/04/20 06:10:15;;;;;;;8.85;4.32;;;;;;;;;;4993948;28;20023;-62
2022/04/20 06:12:41;;;;;;;7.25;3.15;;;;;;;;;;4994466;28;20391;-58
2022/04/20 06:15:08;;;;;;;10.70;3.60;;;;;;;;;;4994123;28;20455;-59
2022/04/20 06:17:34;;;;;;;8.93;4.10;;;;;;;;;;4994141;28;20041;-59
2022/04/20 06:20:00;;;;;;;10.65;3.42;;;;;;;;;;4994191;28;20023;-59
2022/04/20 06:22:26;;;;;;;13.45;6.15;;;;;;;;;;4993943;28;20026;-59
2022/04/20 06:24:51;;;;;;;18.08;5.45;;;;;;;;;;4993819;28;20384;-59
2022/04/20 06:27:17;;;;;;;7.47;3.65;;;;;;;;;;4993917;28;20503;-59
2022/04/20 06:29:43;;;;;;;13.15;4.53;;;;;;;;;;4993800;28;20454;-57
2022/04/20 06:32:08;;;;;;;10.13;3.80;;;;;;;;;;4993298;28;20069;-57
2022/04/20 06:34:34;;;;;;;6.70;3.75;;;;;;;;;;4993221;28;20476;-56
2022/04/20 06:37:00;;;;;;;11.52;4.88;;;;;;;;;;4992914;28;20396;-59
2022/04/20 06:39:26;;;;;;;21.70;5.63;;;;;;;;;;4992991;28;20054;-59
2022/04/20 06:41:52;;;;;;;12.15;4.47;;;;;;;;;;4993532;28;20026;-59
2022/04/20 06:44:18;;;;;;;13.63;4.20;;;;;;;;;;4993424;28;20034;-59
2022/04/20 06:46:45;;;;;;;10.23;4.80;;;;;;;;;;4993627;28;20057;-59
2022/04/20 06:49:11;;;;;;;9.75;4.30;;;;;;;;;;4993615;28;20472;-58
2022/04/20 06:59:50;;;;;;;8.07;5.18;;;;;;;;;;4993356;28;20037;-59
2022/04/20 07:02:16;;;;;;;7.40;5.28;;;;;;;;;;4993443;28;20028;-59
2022/04/20 07:04:42;;;;;;;9.80;4.93;;;;;;;;;;4993003;28;20046;-58
2022/04/20 07:07:07;;;;;;;7.63;4.47;;;;;;;;;;4993265;28;20026;-57
2022/04/20 07:09:33;;;;;;;12.88;5.47;;;;;;;;;;4993302;28;20019;-59
2022/04/20 07:11:58;;;;;;;8.70;4.40;;;;;;;;;;4993090;28;20129;-57
2022/04/20 07:14:25;;;;;;;6.32;4.00;;;;;;;;;;4993108;28;20126;-59
2022/04/20 07:16:50;;;;;;;8.60;4.53;;;;;;;;;;4992508;28;20026;-60
2022/04/20 07:19:16;;;;;;;10.52;4.95;;;;;;;;;;4992560;28;20030;-58
2022/04/20 07:21:41;;;;;;;9.73;3.85;;;;;;;;;;4992479;28;20030;-58
2022/04/20 07:24:07;;;;;;;11.32;4.22;;;;;;;;;;4989838;28;20056;-61
2022/04/20 07:26:32;;;;;;;8.88;4.30;;;;;;;;;;4992974;28;20030;-59
2022/04/20 07:28:58;;;;;;;8.30;4.00;;;;;;;;;;4987964;28;20476;-58
2022/04/20 07:31:24;;;;;;;10.70;3.90;;;;;;;;;;4987498;28;20030;-59
2022/04/20 07:33:49;;;;;;;6.25;3.28;;;;;;;;;;4988871;28;20399;-60
2022/04/20 07:36:14;;;;;;;8.10;3.80;;;;;;;;;;4991632;28;20030;-58
2022/04/20 07:38:40;;;;;;;10.30;3.35;;;;;;;;;;4991730;28;20113;-58
2022/04/20 07:41:06;;;;;;;8.63;3.05;;;;;;;;;;4990832;28;20042;-58
2022/04/20 07:43:32;;;;;;;7.65;3.28;;;;;;;;;;4991299;28;20026;-58
2022/04/20 07:45:58;;;;;;;5.13;3.33;;;;;;;;;;4991700;28;20101;-57
2022/04/20 07:48:23;;;;;;;7.78;3.08;;;;;;;;;;4991965;28;20114;-58
2022/04/20 07:50:49;;;;;;;6.72;3.05;;;;;;;;;;4991014;28;20105;-58
2022/04/20 07:53:15;;;;;;;4.65;2.63;;;;;;;;;;4992231;28;20022;-58
2022/04/20 07:55:46;;;;;;;6.65;2.78;;;;;;;;;;4991376;28;20021;-57
2022/04/20 07:58:12;;;;;;;7.35;2.60;;;;;;;;;;4992053;28;20439;-58
2022/04/20 08:00:37;;;;;;;4.38;2.30;;;;;;;;;;4992147;28;20027;-57
2022/04/20 08:03:14;;;;;;;6.82;2.90;;;;;;;;;;4992149;28;20033;-57
2022/04/20 08:05:40;;;;;;;6.13;2.47;;;;;;;;;;4991946;28;20122;-57
2022/04/20 08:08:08;;;;;;;4.43;2.20;;;;;;;;;;4991869;28;20022;-58
2022/04/20 08:10:34;;;;;;;5.03;2.00;;;;;;;;;;4989758;28;20093;-58
2022/04/20 08:12:59;;;;;;;6.30;2.65;;;;;;;;;;4991044;28;20547;-58
2022/04/20 08:15:25;;;;;;;6.85;2.47;;;;;;;;;;4991236;28;20034;-58
2022/04/20 08:17:51;;;;;;;9.18;2.53;;;;;;;;;;4991017;28;20117;-58
2022/04/20 08:20:16;;;;;;;4.97;2.03;;;;;;;;;;4990616;28;20022;-58
2022/04/20 08:22:44;;;;;;;6.00;2.30;;;;;;;;;;4991109;28;20091;-58
2022/04/20 08:25:12;;;;;;;10.43;3.17;;;;;;;;;;4990800;28;20476;-58
2022/04/20 08:27:38;;;;;;;4.70;2.25;;;;;;;;;;4990816;28;20128;-59
2022/04/20 08:30:05;;;;;;;10.75;2.65;;;;;;;;;;4990903;28;20478;-58
2022/04/20 08:32:31;;;;;;;4.78;2.15;;;;;;;;;;4990572;28;20022;-59
2022/04/20 08:34:56;;;;;;;5.80;2.25;;;;;;;;;;4990866;28;20049;-59
2022/04/20 08:37:22;;;;;;;6.10;2.65;;;;;;;;;;4980895;28;20121;-58
2022/04/20 08:39:48;;;;;;;6.63;2.10;;;;;;;;;;4982054;28;20022;-60
2022/04/20 08:42:16;;;;;;;3.78;2.00;;;;;;;;;;4988228;28;20030;-58
2022/04/20 08:44:47;;;;;;;5.97;2.38;;;;;;;;;;4980258;28;20081;-58
2022/04/20 08:47:23;;;;;;;7.25;2.15;;;;;;;;;;4990931;28;20036;-58
2022/04/20 08:49:50;;;;;;;8.43;2.30;;;;;;;;;;4981603;28;20492;-59
2022/04/20 08:52:37;;;;;;;7.43;2.83;;;;;;;;;;4985309;28;20022;-61
2022/04/20 08:55:14;;;;;;;8.00;2.63;;;;;;;;;;4993096;28;20022;-61
2022/04/20 08:57:41;;;;;;;4.72;1.77;;;;;;;;;;4992547;28;20117;-62
2022/04/20 09:00:12;;;;;;;5.65;2.00;;;;;;;;;;4994347;28;20046;-57
2022/04/20 09:02:38;;;;;;;7.03;2.10;;;;;;;;;;4992245;28;20060;-59
2022/04/20 09:05:04;;;;;;;5.68;2.20;;;;;;;;;;4994147;28;20073;-61
2022/04/20 09:07:33;;;;;;;7.85;2.08;;;;;;;;;;4994151;28;20025;-59
2022/04/20 09:10:00;;;;;;;9.18;2.53;;;;;;;;;;4993808;28;20019;-58
2022/04/20 09:12:27;;;;;;;5.53;2.00;;;;;;;;;;4993920;28;20423;-59
2022/04/20 09:14:53;;;;;;;5.88;2.30;;;;;;;;;;4993848;28;20060;-59
2022/04/20 09:17:22;;;;;;;6.72;2.45;;;;;;;;;;4990365;28;20029;-61
2022/04/20 09:19:51;;;;;;;4.75;2.10;;;;;;;;;;4992728;28;20034;-58
2022/04/20 09:22:27;;;;;;;7.70;2.15;;;;;;;;;;4992671;28;20023;-61
2022/04/20 09:25:14;;;;;;;4.57;2.28;;;;;;;;;;4993622;28;20030;-59
2022/04/20 09:27:41;;;;;;;7.13;2.08;;;;;;;;;;4990284;28;20030;-58
2022/04/20 09:30:11;;;;;;;5.38;1.90;;;;;;;;;;4993898;28;20019;-58
2022/04/20 09:32:44;;;;;;;8.88;2.00;;;;;;;;;;4989994;28;20034;-60
2022/04/20 09:35:12;;;;;;;5.60;2.10;;;;;;;;;;4993591;28;20033;-62
2022/04/20 09:37:39;;;;;;;3.85;1.83;;;;;;;;;;4991493;28;20041;-58
2022/04/20 09:40:11;;;;;;;6.22;2.20;;;;;;;;;;4990968;28;20384;-59
2022/04/20 09:42:36;;;;;;;4.43;1.60;;;;;;;;;;4992775;28;20053;-57
2022/04/20 09:45:04;;;;;;;7.43;1.95;;;;;;;;;;4994076;28;20033;-59
2022/04/20 09:50:24;;;;;;;3.38;1.73;;;;;;;;;;4995124;28;20034;-62
2022/04/20 09:52:57;;;;;;;7.47;2.30;;;;;;;;;;4994459;28;20034;-58
2022/04/20 09:55:29;;;;;;;5.03;1.90;;;;;;;;;;4994876;28;20165;-60
2022/04/20 09:58:13;;;;;;;6.80;2.15;;;;;;;;;;4988488;28;20750;-57
2022/04/20 10:00:44;;;;;;;6.45;2.28;;;;;;;;;;4979393;28;20031;-58
2022/04/20 10:03:09;;;;;;;6.05;2.00;;;;;;;;;;4974528;28;20093;-61
2022/04/20 10:05:37;;;;;;;7.70;2.30;;;;;;;;;;4975012;28;20509;-59
2022/04/20 10:08:03;;;;;;;7.68;2.30;;;;;;;;;;4974670;28;20027;-61
2022/04/20 10:10:33;;;;;;;5.40;2.20;;;;;;;;;;4974944;28;20030;-57
2022/04/20 10:13:00;;;;;;;4.20;1.77;;;;;;;;;;4974639;28;20100;-58
2022/04/20 10:18:21;;;;;;;4.90;1.90;;;;;;;;;;4974972;28;20037;-59
2022/04/20 10:20:56;;;;;;;6.53;2.38;;;;;;;;;;4974772;28;20074;-58
2022/04/20 10:23:22;;;;;;;5.32;2.00;;;;;;;;;;4974563;28;20376;-58
2022/04/20 10:25:50;;;;;;;5.50;2.10;;;;;;;;;;4982107;28;20027;-62
2022/04/20 10:28:37;;;;;;;5.20;1.95;;;;;;;;;;4994103;28;20519;-58
2022/04/20 10:31:19;;;;;;;3.72;2.25;;;;;;;;;;4993374;28;20089;-61
2022/04/20 10:33:46;;;;;;;7.22;2.83;;;;;;;;;;4993953;28;20475;-61
2022/04/20 10:36:15;;;;;;;5.57;2.33;;;;;;;;;;4993789;28;20023;-59
2022/04/20 10:38:43;;;;;;;4.25;1.90;;;;;;;;;;4993865;28;20038;-59
2022/04/20 10:41:19;;;;;;;5.40;2.60;;;;;;;;;;4993746;28;20101;-59
2022/04/20 10:43:46;;;;;;;4.93;2.10;;;;;;;;;;4994032;28;20036;-61
2022/04/20 10:46:19;;;;;;;9.73;2.30;;;;;;;;;;4993866;28;20054;-57
2022/04/20 10:48:48;;;;;;;4.75;1.98;;;;;;;;;;4993777;28;20045;-58
2022/04/20 10:51:35;;;;;;;4.22;2.38;;;;;;;;;;4993278;28;20022;-58
2022/04/20 10:54:27;;;;;;;6.47;2.47;;;;;;;;;;4993306;28;20498;-62
2022/04/20 10:57:05;;;;;;;8.00;3.00;;;;;;;;;;4993480;28;20034;-61
2022/04/20 10:59:32;;;;;;;5.35;2.10;;;;;;;;;;4993740;28;20077;-58
2022/04/20 11:02:03;;;;;;;6.35;2.55;;;;;;;;;;4994360;28;20034;-58
2022/04/20 11:04:40;;;;;;;6.90;2.28;;;;;;;;;;4993065;28;20638;-58
2022/04/20 11:07:08;;;;;;;5.65;2.47;;;;;;;;;;4993374;28;20023;-59
2022/04/20 11:09:46;;;;;;;8.32;2.75;;;;;;;;;;4993449;28;20023;-58
2022/04/20 11:21:06;;;;;;;7.38;2.33;;;;;;;;;;4992049;28;20056;-58
2022/04/20 11:24:06;;;;;;;6.07;2.80;;;;;;;;;;4993151;28;20030;-58
2022/04/20 11:26:49;;;;;;;8.60;2.60;;;;;;;;;;4993043;28;20026;-61
2022/04/20 11:29:16;;;;;;;7.60;2.80;;;;;;;;;;4993056;28;20035;-58
2022/04/20 11:31:48;;;;;;;6.85;2.70;;;;;;;;;;4992974;28;20222;-59
2022/04/20 11:34:16;;;;;;;5.32;2.40;;;;;;;;;;4992747;28;20101;-62
2022/04/20 11:36:44;;;;;;;5.95;3.10;;;;;;;;;;4992816;28;20042;-59
2022/04/20 11:39:11;;;;;;;6.13;2.15;;;;;;;;;;4992742;28;20092;-58
2022/04/20 11:41:37;;;;;;;6.65;2.17;;;;;;;;;;5002462;28;20493;-58
2022/04/20 11:44:03;;;;;;;5.97;3.05;;;;;;;;;;5012612;28;20104;-60
2022/04/20 11:46:31;;;;;;;7.03;2.50;;;;;;;;;;5012244;28;20029;-59
2022/04/20 11:48:57;;;;;;;7.95;2.78;;;;;;;;;;5011769;28;20163;-58
2022/04/20 11:51:25;;;;;;;6.88;2.35;;;;;;;;;;5011186;28;20367;-58
2022/04/20 11:53:52;;;;;;;5.65;2.67;;;;;;;;;;5012429;28;20061;-59
2022/04/20 11:56:37;;;;;;;10.98;3.17;;;;;;;;;;5012469;28;20514;-62
2022/04/20 11:59:06;;;;;;;6.70;2.40;;;;;;;;;;5012240;28;20033;-60
2022/04/20 12:01:33;;;;;;;6.47;2.55;;;;;;;;;;5012356;28;20026;-62
2022/04/20 12:04:01;;;;;;;9.02;2.60;;;;;;;;;;5012069;28;20066;-61
2022/04/20 12:06:28;;;;;;;7.25;2.20;;;;;;;;;;5012357;28;20034;-60
2022/04/20 12:08:54;;;;;;;8.50;2.38;;;;;;;;;;5011874;28;20460;-58
2022/04/20 12:11:20;;;;;;;7.63;2.10;;;;;;;;;;5012187;28;20026;-58
2022/04/20 12:13:46;;;;;;;5.07;2.22;;;;;;;;;;5012111;28;20030;-61
2022/04/20 12:16:14;;;;;;;6.43;2.35;;;;;;;;;;5012086;28;20067;-60
2022/04/20 12:18:45;;;;;;;10.35;2.33;;;;;;;;;;5011540;28;20101;-61
2022/04/20 12:21:42;;;;;;;4.72;2.40;;;;;;;;;;5012140;28;20026;-60
2022/04/20 12:24:20;;;;;;;5.85;2.30;;;;;;;;;;5012582;28;20022;-60
2022/04/20 12:26:47;;;;;;;4.65;2.22;;;;;;;;;;5000505;28;20033;-57
2022/04/20 12:29:14;;;;;;;4.95;2.28;;;;;;;;;;4996299;28;20546;-58
2022/04/20 12:31:43;;;;;;;5.15;2.30;;;;;;;;;;4996727;28;20118;-59
2022/04/20 12:34:10;;;;;;;5.70;2.40;;;;;;;;;;4996099;28;20549;-61
2022/04/20 12:37:03;;;;;;;8.65;2.50;;;;;;;;;;4995735;28;20034;-58
2022/04/20 12:39:42;;;;;;;13.35;2.67;;;;;;;;;;4996170;28;20030;-57
2022/04/20 12:42:12;;;;;;;5.43;2.70;;;;;;;;;;5009927;28;20025;-57
2022/04/20 12:44:38;;;;;;;;;;;;;;;;;;5016044;28;20100;-58
2022/04/20 12:47:19;;;;;;;5.38;2.60;;;;;;;;;;5006391;28;19968;-57
2022/04/20 12:49:53;;;;;;;6.65;2.35;;;;;;;;;;4995769;28;20479;-59
2022/04/20 12:52:27;;;;;;;7.05;2.33;;;;;;;;;;4995785;28;20053;-60
2022/04/20 12:54:54;;;;;;;6.68;2.28;;;;;;;;;;4995865;28;20030;-55
2022/04/20 13:03:03;;;;;;;7.88;2.72;;;;;;;;;;4995306;28;20077;-59
2022/04/20 13:05:29;;;;;;;7.25;2.33;;;;;;;;;;4995682;28;20070;-57
2022/04/20 13:07:56;;;;;;;5.15;2.25;;;;;;;;;;4995677;28;20476;-60
2022/04/20 13:10:22;;;;;;;8.05;2.85;;;;;;;;;;4995479;28;20528;-61
2022/04/20 13:12:54;;;;;;;8.40;3.42;;;;;;;;;;4995392;28;20542;-61
2022/04/20 13:15:21;;;;;;;5.40;2.38;;;;;;;;;;4995081;28;20030;-59
2022/04/20 13:17:47;;;;;;;5.80;2.30;;;;;;;;;;4995409;28;20037;-62
2022/04/20 13:20:14;;;;;;;7.90;1.98;;;;;;;;;;4995621;28;20022;-61
2022/04/20 13:22:39;;;;;;;6.57;2.38;;;;;;;;;;4995233;28;20034;-59
2022/04/20 13:27:55;;;;;;;7.68;2.17;;;;;;;;;;4995568;28;20033;-58
2022/04/20 13:30:21;;;;;;;7.50;2.55;;;;;;;;;;4994863;28;20038;-59
2022/04/20 13:32:48;;;;;;;6.03;2.50;;;;;;;;;;4995149;28;20076;-59
2022/04/20 13:35:13;;;;;;;8.30;2.53;;;;;;;;;;4994740;28;20033;-62
2022/04/20 13:37:39;;;;;;;6.93;1.73;;;;;;;;;;4994269;28;20391;-61
2022/04/20 13:40:05;;;;;;;10.93;3.53;;;;;;;;;;4995067;28;20088;-60
2022/04/20 13:42:31;;;;;;;9.80;4.65;;;;;;;;;;5011162;28;20041;-59
2022/04/20 13:44:57;;;;;;;6.35;2.50;;;;;;;;;;5013735;28;20042;-61
2022/04/20 13:47:22;;;;;;;6.65;2.53;;;;;;;;;;5014120;28;20026;-60
2022/04/20 13:49:48;;;;;;;6.75;2.30;;;;;;;;;;5014493;28;20439;-62
2022/04/20 13:52:14;;;;;;;7.65;2.20;;;;;;;;;;5014407;28;20018;-59
2022/04/20 13:54:40;;;;;;;6.95;2.38;;;;;;;;;;5014465;28;20034;-59
2022/04/20 13:57:05;;;;;;;8.05;3.03;;;;;;;;;;5014102;28;20030;-61
2022/04/20 13:59:31;;;;;;;5.13;2.25;;;;;;;;;;5013926;28;20060;-62
2022/04/20 14:01:57;;;;;;;5.57;1.70;;;;;;;;;;5014139;28;20022;-58
2022/04/20 14:04:22;;;;;;;4.18;1.90;;;;;;;;;;5013857;28;20490;-61
2022/04/20 14:06:50;;;;;;;8.80;2.38;;;;;;;;;;5014073;28;20506;-61
2022/04/20 14:09:16;;;;;;;4.10;1.70;;;;;;;;;;5013892;28;20050;-59
2022/04/20 14:11:41;;;;;;;5.10;1.88;;;;;;;;;;5013557;28;20459;-59
2022/04/20 14:14:07;;;;;;;6.45;2.10;;;;;;;;;;5013711;28;20022;-59
2022/04/20 14:16:33;;;;;;;8.23;2.50;;;;;;;;;;5013959;28;20439;-59
2022/04/20 14:18:59;;;;;;;6.57;2.33;;;;;;;;;;5013823;28;20114;-62
2022/04/20 14:21:24;;;;;;;7.93;2.13;;;;;;;;;;5013755;28;20438;-62
2022/04/20 14:23:50;;;;;;;7.55;2.28;;;;;;;;;;5013860;28;20110;-59
2022/04/20 14:34:27;;;;;;;19.52;8.95;;;;;;;;;;4993986;28;20033;-57
2022/04/20 14:36:53;;;;;;;11.65;5.63;;;;;;;;;;4993773;28;20022;-54
2022/04/20 14:39:18;;;;;;;6.75;2.70;;;;;;;;;;4994372;28;20069;-57
2022/04/20 14:41:44;;;;;;;6.30;1.88;;;;;;;;;;4995116;28;20058;-61
2022/04/20 14:44:09;;;;;;;12.77;2.60;;;;;;;;;;4991956;28;20404;-59
2022/04/20 14:46:35;;;;;;;7.20;2.33;;;;;;;;;;5006322;28;20052;-58
2022/04/20 14:49:01;;;;;;;7.60;2.60;;;;;;;;;;4996345;28;20034;-59
2022/04/20 14:51:27;;;;;;;5.57;2.03;;;;;;;;;;4997072;28;20352;-58
2022/04/20 14:53:53;;;;;;;5.90;2.33;;;;;;;;;;4995158;28;20109;-58
2022/04/20 14:56:18;;;;;;;14.35;4.93;;;;;;;;;;4994937;28;20101;-61
2022/04/20 14:58:44;;;;;;;9.20;3.75;;;;;;;;;;4994788;28;20034;-58
2022/04/20 15:01:10;;;;;;;7.53;2.20;;;;;;;;;;4996078;28;20487;-59
2022/04/20 15:03:36;;;;;;;7.97;2.17;;;;;;;;;;5007683;28;20045;-58
2022/04/20 15:06:01;;;;;;;10.05;2.78;;;;;;;;;;5001252;28;20116;-61
2022/04/20 15:08:27;;;;;;;5.10;1.98;;;;;;;;;;5001171;28;20126;-58
2022/04/20 15:10:56;;;;;;;7.57;2.60;;;;;;;;;;5008170;28;20072;-59
2022/04/20 15:13:23;;;;;;;7.80;1.95;;;;;;;;;;4995963;28;20496;-59
2022/04/20 15:15:48;;;;;;;8.02;2.10;;;;;;;;;;5006244;28;20019;-60
2022/04/20 15:18:15;;;;;;;8.15;3.17;;;;;;;;;;5002757;28;20037;-61
2022/04/20 15:20:41;;;;;;;11.20;5.80;;;;;;;;;;4998922;28;20030;-61
2022/04/20 15:23:08;;;;;;;4.45;2.38;;;;;;;;;;5008833;28;20109;-57
2022/04/20 15:25:34;;;;;;;5.57;2.22;;;;;;;;;;4997384;28;20022;-56
2022/04/20 15:28:02;;;;;;;7.07;2.70;;;;;;;;;;5004003;28;20033;-59
2022/04/20 15:30:35;;;;;;;7.38;3.40;;;;;;;;;;4994775;28;20030;-62
2022/04/20 15:33:03;;;;;;;6.97;2.40;;;;;;;;;;4994513;28;20030;-61
2022/04/20 15:35:29;;;;;;;16.10;2.78;;;;;;;;;;4996385;28;20036;-61